sensor_id;sensor_type;location;lat;lon;timestamp;P1;durP1;ratioP1;P2;durP2;ratioP2
77164;SDS011;66140;50.280;18.660;2023-04-03T05:01:07;8.05;;;3.97;;
77164;SDS011;66140;50.280;18.660;2023-04-03T05:03:33;8.13;;;3.58;;
77164;SDS011;66140;50.280;18.660;2023-04-03T05:05:59;6.88;;;4.28;;
77164;SDS011;66140;50.280;18.660;2023-04-03T05:08:25;10.65;;;3.95;;
77164;SDS011;66140;50.280;18.660;2023-04-03T05:10:51;6.15;;;2.95;;
77164;SDS011;66140;50.280;18.660;2023-04-03T05:13:18;5.00;;;3.05;;
77164;SDS011;66140;50.280;18.660;2023-04-03T05:15:44;7.40;;;2.97;;
77164;SDS011;66140;50.280;18.660;2023-04-03T05:18:10;4.35;;;3.33;;
77164;SDS011;66140;50.280;18.660;2023-04-03T05:20:35;6.75;;;3.55;;
77164;SDS011;66140;50.280;18.660;2023-04-03T05:23:02;5.10;;;2.47;;
77164;SDS011;66140;50.280;18.660;2023-04-03T05:25:27;5.90;;;3.30;;
77164;SDS011;66140;50.280;18.660;2023-04-03T05:27:54;7.60;;;2.75;;
77164;SDS011;66140;50.280;18.660;2023-04-03T05:30:20;6.03;;;3.60;;
77164;SDS011;66140;50.280;18.660;2023-04-03T05:32:46;4.75;;;3.05;;
77164;SDS011;66140;50.280;18.660;2023-04-03T05:35:12;8.70;;;3.72;;
77164;SDS011;66140;50.280;18.660;2023-04-03T05:37:37;3.40;;;2.55;;
77164;SDS011;66140;50.280;18.660;2023-04-03T05:40:04;4.70;;;2.38;;
77164;SDS011;66140;50.280;18.660;2023-04-03T05:42:30;7.75;;;3.15;;
77164;SDS011;66140;50.280;18.660;2023-04-03T05:44:55;8.77;;;4.00;;
77164;SDS011;66140;50.280;18.660;2023-04-03T05:47:21;7.78;;;2.83;;
77164;SDS011;66140;50.280;18.660;2023-04-03T05:49:46;6.72;;;2.63;;
77164;SDS011;66140;50.280;18.660;2023-04-03T05:54:50;8.82;;;3.05;;
77164;SDS011;66140;50.280;18.660;2023-04-03T05:57:16;3.65;;;1.83;;
77164;SDS011;66140;50.280;18.660;2023-04-03T05:59:42;4.43;;;2.42;;
77164;SDS011;66140;50.280;18.660;2023-04-03T06:02:13;3.80;;;2.78;;
77164;SDS011;66140;50.280;18.660;2023-04-03T06:04:46;6.38;;;2.58;;
77164;SDS011;66140;50.280;18.660;2023-04-03T06:07:14;5.50;;;3.03;;
77164;SDS011;66140;50.280;18.660;2023-04-03T06:09:41;6.93;;;2.97;;
77164;SDS011;66140;50.280;18.660;2023-04-03T06:12:07;5.50;;;2.58;;
77164;SDS011;66140;50.280;18.660;2023-04-03T06:14:33;5.47;;;3.72;;
77164;SDS011;66140;50.280;18.660;2023-04-03T06:16:59;5.43;;;2.42;;
77164;SDS011;66140;50.280;18.660;2023-04-03T06:19:25;5.50;;;2.28;;
77164;SDS011;66140;50.280;18.660;2023-04-03T06:21:51;6.15;;;2.55;;
77164;SDS011;66140;50.280;18.660;2023-04-03T06:24:17;6.88;;;2.95;;
77164;SDS011;66140;50.280;18.660;2023-04-03T06:26:43;5.05;;;2.33;;
77164;SDS011;66140;50.280;18.660;2023-04-03T06:29:09;8.43;;;2.53;;
77164;SDS011;66140;50.280;18.660;2023-04-03T06:31:34;7.20;;;1.83;;
77164;SDS011;66140;50.280;18.660;2023-04-03T06:34:02;6.47;;;3.15;;
77164;SDS011;66140;50.280;18.660;2023-04-03T06:36:28;5.78;;;1.98;;
77164;SDS011;66140;50.280;18.660;2023-04-03T06:38:54;4.55;;;2.10;;
77164;SDS011;66140;50.280;18.660;2023-04-03T06:41:19;4.85;;;2.25;;
77164;SDS011;66140;50.280;18.660;2023-04-03T06:43:46;7.78;;;2.45;;
77164;SDS011;66140;50.280;18.660;2023-04-03T06:46:18;6.22;;;2.13;;
77164;SDS011;66140;50.280;18.660;2023-04-03T06:48:47;11.77;;;2.88;;
77164;SDS011;66140;50.280;18.660;2023-04-03T06:51:26;5.05;;;2.28;;
77164;SDS011;66140;50.280;18.660;2023-04-03T06:53:53;6.47;;;2.88;;
77164;SDS011;66140;50.280;18.660;2023-04-03T06:56:20;6.60;;;2.70;;
77164;SDS011;66140;50.280;18.660;2023-04-03T06:58:48;5.22;;;2.67;;
77164;SDS011;66140;50.280;18.660;2023-04-03T07:01:15;7.53;;;1.83;;
77164;SDS011;66140;50.280;18.660;2023-04-03T07:03:42;4.07;;;2.25;;
77164;SDS011;66140;50.280;18.660;2023-04-03T07:06:09;6.65;;;2.70;;
77164;SDS011;66140;50.280;18.660;2023-04-03T07:08:37;3.72;;;2.40;;
77164;SDS011;66140;50.280;18.660;2023-04-03T07:11:03;6.45;;;1.58;;
77164;SDS011;66140;50.280;18.660;2023-04-03T07:13:29;7.68;;;2.72;;
77164;SDS011;66140;50.280;18.660;2023-04-03T07:15:55;6.65;;;2.00;;
77164;SDS011;66140;50.280;18.660;2023-04-03T07:18:20;5.80;;;2.22;;
77164;SDS011;66140;50.280;18.660;2023-04-03T07:20:46;12.23;;;3.40;;
77164;SDS011;66140;50.280;18.660;2023-04-03T07:23:12;5.40;;;1.95;;
77164;SDS011;66140;50.280;18.660;2023-04-03T07:25:47;4.43;;;1.48;;
77164;SDS011;66140;50.280;18.660;2023-04-03T07:28:14;5.53;;;1.88;;
77164;SDS011;66140;50.280;18.660;2023-04-03T07:30:44;5.10;;;2.10;;
77164;SDS011;66140;50.280;18.660;2023-04-03T07:33:18;4.18;;;1.77;;
77164;SDS011;66140;50.280;18.660;2023-04-03T07:35:47;4.32;;;1.95;;
77164;SDS011;66140;50.280;18.660;2023-04-03T07:38:13;3.25;;;1.67;;
77164;SDS011;66140;50.280;18.660;2023-04-03T07:40:39;3.88;;;1.90;;
77164;SDS011;66140;50.280;18.660;2023-04-03T07:43:05;4.07;;;1.55;;
77164;SDS011;66140;50.280;18.660;2023-04-03T07:45:31;8.05;;;2.67;;
77164;SDS011;66140;50.280;18.660;2023-04-03T07:47:59;4.95;;;2.25;;
77164;SDS011;66140;50.280;18.660;2023-04-03T07:50:25;6.47;;;2.22;;
77164;SDS011;66140;50.280;18.660;2023-04-03T07:52:52;4.38;;;2.55;;
77164;SDS011;66140;50.280;18.660;2023-04-03T07:55:19;4.68;;;2.60;;
77164;SDS011;66140;50.280;18.660;2023-04-03T07:57:45;2.97;;;1.33;;
77164;SDS011;66140;50.280;18.660;2023-04-03T08:00:11;3.30;;;1.67;;
77164;SDS011;66140;50.280;18.660;2023-04-03T08:02:37;3.65;;;1.60;;
77164;SDS011;66140;50.280;18.660;2023-04-03T08:05:02;3.10;;;1.60;;
77164;SDS011;66140;50.280;18.660;2023-04-03T08:07:28;8.10;;;2.22;;
77164;SDS011;66140;50.280;18.660;2023-04-03T08:09:54;5.05;;;2.20;;
77164;SDS011;66140;50.280;18.660;2023-04-03T08:12:19;5.10;;;1.90;;
77164;SDS011;66140;50.280;18.660;2023-04-03T08:14:45;4.18;;;1.80;;
77164;SDS011;66140;50.280;18.660;2023-04-03T08:17:10;6.90;;;2.40;;
77164;SDS011;66140;50.280;18.660;2023-04-03T08:19:39;5.30;;;1.23;;
77164;SDS011;66140;50.280;18.660;2023-04-03T08:22:05;3.90;;;0.77;;
77164;SDS011;66140;50.280;18.660;2023-04-03T08:24:34;3.00;;;1.40;;
77164;SDS011;66140;50.280;18.660;2023-04-03T08:29:25;3.20;;;1.20;;
77164;SDS011;66140;50.280;18.660;2023-04-03T08:31:50;3.25;;;1.38;;
77164;SDS011;66140;50.280;18.660;2023-04-03T08:34:17;2.75;;;1.00;;
77164;SDS011;66140;50.280;18.660;2023-04-03T08:36:44;3.50;;;1.40;;
77164;SDS011;66140;50.280;18.660;2023-04-03T08:39:10;3.50;;;1.30;;
77164;SDS011;66140;50.280;18.660;2023-04-03T08:41:43;1.77;;;0.80;;
77164;SDS011;66140;50.280;18.660;2023-04-03T08:47:02;3.60;;;1.10;;
77164;SDS011;66140;50.280;18.660;2023-04-03T08:49:40;2.35;;;0.88;;
77164;SDS011;66140;50.280;18.660;2023-04-03T08:52:13;6.28;;;1.23;;
77164;SDS011;66140;50.280;18.660;2023-04-03T08:54:56;2.03;;;0.68;;
77164;SDS011;66140;50.280;18.660;2023-04-03T08:57:29;2.67;;;1.10;;
77164;SDS011;66140;50.280;18.660;2023-04-03T08:59:55;2.58;;;0.88;;
77164;SDS011;66140;50.280;18.660;2023-04-03T09:02:31;1.65;;;0.95;;
77164;SDS011;66140;50.280;18.660;2023-04-03T09:05:18;3.08;;;1.05;;
77164;SDS011;66140;50.280;18.660;2023-04-03T09:08:00;0.85;;;0.38;;
77164;SDS011;66140;50.280;18.660;2023-04-03T09:10:47;4.00;;;1.35;;
77164;SDS011;66140;50.280;18.660;2023-04-03T09:19:28;2.28;;;0.70;;
77164;SDS011;66140;50.280;18.660;2023-04-03T09:22:17;4.47;;;1.30;;
77164;SDS011;66140;50.280;18.660;2023-04-03T09:24:47;3.45;;;1.30;;
77164;SDS011;66140;50.280;18.660;2023-04-03T09:27:21;3.42;;;1.58;;
77164;SDS011;66140;50.280;18.660;2023-04-03T09:29:46;1.30;;;0.75;;
77164;SDS011;66140;50.280;18.660;2023-04-03T09:32:18;5.10;;;1.63;;
77164;SDS011;66140;50.280;18.660;2023-04-03T09:34:50;4.45;;;1.50;;
77164;SDS011;66140;50.280;18.660;2023-04-03T09:40:36;1.80;;;1.00;;
77164;SDS011;66140;50.280;18.660;2023-04-03T09:43:19;4.53;;;1.10;;
77164;SDS011;66140;50.280;18.660;2023-04-03T09:45:48;1.30;;;0.70;;
77164;SDS011;66140;50.280;18.660;2023-04-03T09:48:19;2.92;;;1.85;;
77164;SDS011;66140;50.280;18.660;2023-04-03T09:53:40;5.07;;;1.67;;
77164;SDS011;66140;50.280;18.660;2023-04-03T09:58:39;5.30;;;1.23;;
77164;SDS011;66140;50.280;18.660;2023-04-03T10:01:20;3.60;;;1.55;;
77164;SDS011;66140;50.280;18.660;2023-04-03T10:12:02;4.22;;;1.83;;
77164;SDS011;66140;50.280;18.660;2023-04-03T10:14:36;3.33;;;1.45;;
77164;SDS011;66140;50.280;18.660;2023-04-03T10:19:48;3.38;;;1.45;;
77164;SDS011;66140;50.280;18.660;2023-04-03T10:28:09;4.60;;;1.17;;
77164;SDS011;66140;50.280;18.660;2023-04-03T10:33:56;3.95;;;2.00;;
77164;SDS011;66140;50.280;18.660;2023-04-03T10:44:34;3.63;;;1.02;;
77164;SDS011;66140;50.280;18.660;2023-04-03T10:47:32;2.75;;;1.23;;
77164;SDS011;66140;50.280;18.660;2023-04-03T10:50:26;4.30;;;1.85;;
77164;SDS011;66140;50.280;18.660;2023-04-03T10:58:09;3.75;;;1.52;;
77164;SDS011;66140;50.280;18.660;2023-04-03T11:00:49;3.33;;;1.65;;
77164;SDS011;66140;50.280;18.660;2023-04-03T11:03:29;4.07;;;1.65;;
77164;SDS011;66140;50.280;18.660;2023-04-03T11:05:59;5.18;;;1.70;;
77164;SDS011;66140;50.280;18.660;2023-04-03T11:11:06;5.13;;;2.00;;
77164;SDS011;66140;50.280;18.660;2023-04-03T11:13:43;4.88;;;2.08;;
77164;SDS011;66140;50.280;18.660;2023-04-03T11:16:18;5.55;;;2.25;;
77164;SDS011;66140;50.280;18.660;2023-04-03T11:18:49;6.38;;;2.22;;
77164;SDS011;66140;50.280;18.660;2023-04-03T11:21:37;2.85;;;1.33;;
77164;SDS011;66140;50.280;18.660;2023-04-03T11:24:13;4.13;;;1.60;;
77164;SDS011;66140;50.280;18.660;2023-04-03T11:26:45;5.38;;;1.63;;
77164;SDS011;66140;50.280;18.660;2023-04-03T11:29:15;2.95;;;1.83;;
77164;SDS011;66140;50.280;18.660;2023-04-03T11:37:04;3.47;;;1.55;;
77164;SDS011;66140;50.280;18.660;2023-04-03T11:39:37;2.22;;;1.08;;
77164;SDS011;66140;50.280;18.660;2023-04-03T11:42:25;3.70;;;1.17;;
77164;SDS011;66140;50.280;18.660;2023-04-03T11:47:52;1.95;;;1.10;;
77164;SDS011;66140;50.280;18.660;2023-04-03T11:58:19;2.95;;;1.60;;
77164;SDS011;66140;50.280;18.660;2023-04-03T12:00:51;3.13;;;1.50;;
77164;SDS011;66140;50.280;18.660;2023-04-03T12:05:49;3.75;;;1.20;;
77164;SDS011;66140;50.280;18.660;2023-04-03T12:08:28;3.28;;;1.45;;
77164;SDS011;66140;50.280;18.660;2023-04-03T12:16:29;2.42;;;1.38;;
77164;SDS011;66140;50.280;18.660;2023-04-03T12:18:56;4.03;;;1.25;;
77164;SDS011;66140;50.280;18.660;2023-04-03T12:22:05;1.80;;;1.13;;
77164;SDS011;66140;50.280;18.660;2023-04-03T12:46:17;4.18;;;1.50;;
77164;SDS011;66140;50.280;18.660;2023-04-03T12:48:52;2.53;;;1.30;;
77164;SDS011;66140;50.280;18.660;2023-04-03T12:53:48;2.35;;;1.02;;
77164;SDS011;66140;50.280;18.660;2023-04-03T12:56:24;8.82;;;2.53;;
77164;SDS011;66140;50.280;18.660;2023-04-03T12:58:55;6.82;;;3.00;;
77164;SDS011;66140;50.280;18.660;2023-04-03T13:01:38;6.90;;;2.17;;
77164;SDS011;66140;50.280;18.660;2023-04-03T13:04:03;3.58;;;1.40;;
77164;SDS011;66140;50.280;18.660;2023-04-03T13:06:39;3.00;;;1.50;;
77164;SDS011;66140;50.280;18.660;2023-04-03T13:09:17;5.13;;;1.63;;
77164;SDS011;66140;50.280;18.660;2023-04-03T13:11:53;1.85;;;1.00;;
77164;SDS011;66140;50.280;18.660;2023-04-03T13:14:25;2.35;;;1.20;;
77164;SDS011;66140;50.280;18.660;2023-04-03T13:17:00;3.30;;;2.08;;
77164;SDS011;66140;50.280;18.660;2023-04-03T13:19:37;2.10;;;0.93;;
77164;SDS011;66140;50.280;18.660;2023-04-03T13:22:06;4.13;;;1.65;;
77164;SDS011;66140;50.280;18.660;2023-04-03T13:24:37;5.10;;;1.80;;
77164;SDS011;66140;50.280;18.660;2023-04-03T13:27:06;4.93;;;1.80;;
77164;SDS011;66140;50.280;18.660;2023-04-03T13:29:33;3.03;;;1.38;;
77164;SDS011;66140;50.280;18.660;2023-04-03T13:32:07;4.72;;;1.30;;
77164;SDS011;66140;50.280;18.660;2023-04-03T13:34:43;3.10;;;2.05;;
77164;SDS011;66140;50.280;18.660;2023-04-03T13:37:25;2.67;;;1.23;;
77164;SDS011;66140;50.280;18.660;2023-04-03T13:42:43;6.78;;;2.30;;
77164;SDS011;66140;50.280;18.660;2023-04-03T13:47:41;4.22;;;1.77;;
77164;SDS011;66140;50.280;18.660;2023-04-03T13:50:27;6.22;;;2.60;;
77164;SDS011;66140;50.280;18.660;2023-04-03T13:52:59;4.82;;;1.77;;
77164;SDS011;66140;50.280;18.660;2023-04-03T13:55:28;5.18;;;2.55;;
77164;SDS011;66140;50.280;18.660;2023-04-03T14:00:54;7.68;;;2.17;;
77164;SDS011;66140;50.280;18.660;2023-04-03T14:03:46;4.45;;;2.42;;
77164;SDS011;66140;50.280;18.660;2023-04-03T14:06:26;7.40;;;3.90;;
77164;SDS011;66140;50.280;18.660;2023-04-03T14:08:52;3.42;;;1.80;;
77164;SDS011;66140;50.280;18.660;2023-04-03T14:11:26;9.10;;;3.22;;
77164;SDS011;66140;50.280;18.660;2023-04-03T14:13:54;6.60;;;3.28;;
77164;SDS011;66140;50.280;18.660;2023-04-03T14:16:24;6.75;;;3.65;;
77164;SDS011;66140;50.280;18.660;2023-04-03T14:18:55;1.70;;;1.50;;
77164;SDS011;66140;50.280;18.660;2023-04-03T14:21:21;2.35;;;1.75;;
77164;SDS011;66140;50.280;18.660;2023-04-03T14:23:47;3.53;;;1.55;;
77164;SDS011;66140;50.280;18.660;2023-04-03T14:26:14;5.03;;;2.47;;
77164;SDS011;66140;50.280;18.660;2023-04-03T14:28:43;2.00;;;1.27;;
77164;SDS011;66140;50.280;18.660;2023-04-03T14:31:10;3.28;;;1.52;;
77164;SDS011;66140;50.280;18.660;2023-04-03T14:33:36;4.40;;;1.80;;
77164;SDS011;66140;50.280;18.660;2023-04-03T14:36:11;2.95;;;1.80;;
77164;SDS011;66140;50.280;18.660;2023-04-03T14:38:38;4.05;;;2.15;;
77164;SDS011;66140;50.280;18.660;2023-04-03T14:41:04;4.85;;;1.92;;
77164;SDS011;66140;50.280;18.660;2023-04-03T14:43:30;3.05;;;1.90;;
77164;SDS011;66140;50.280;18.660;2023-04-03T14:45:55;4.28;;;1.67;;
77164;SDS011;66140;50.280;18.660;2023-04-03T14:48:22;2.35;;;1.70;;
77164;SDS011;66140;50.280;18.660;2023-04-03T14:50:51;5.97;;;2.35;;
77164;SDS011;66140;50.280;18.660;2023-04-03T14:53:17;3.65;;;1.88;;
77164;SDS011;66140;50.280;18.660;2023-04-03T14:55:47;6.57;;;1.92;;
77164;SDS011;66140;50.280;18.660;2023-04-03T14:58:15;5.88;;;2.47;;
77164;SDS011;66140;50.280;18.660;2023-04-03T15:00:42;5.70;;;2.47;;
77164;SDS011;66140;50.280;18.660;2023-04-03T15:03:16;3.90;;;2.10;;
77164;SDS011;66140;50.280;18.660;2023-04-03T15:13:10;3.38;;;1.35;;
77164;SDS011;66140;50.280;18.660;2023-04-03T15:15:38;9.52;;;2.95;;
77164;SDS011;66140;50.280;18.660;2023-04-03T15:18:03;5.82;;;2.45;;
77164;SDS011;66140;50.280;18.660;2023-04-03T15:20:29;4.78;;;1.42;;
77164;SDS011;66140;50.280;18.660;2023-04-03T15:22:56;8.80;;;3.10;;
77164;SDS011;66140;50.280;18.660;2023-04-03T15:25:25;14.15;;;4.47;;
77164;SDS011;66140;50.280;18.660;2023-04-03T15:27:52;6.03;;;2.75;;
77164;SDS011;66140;50.280;18.660;2023-04-03T15:30:19;9.95;;;4.03;;
77164;SDS011;66140;50.280;18.660;2023-04-03T15:32:45;5.68;;;1.75;;
77164;SDS011;66140;50.280;18.660;2023-04-03T15:35:11;6.55;;;1.83;;
77164;SDS011;66140;50.280;18.660;2023-04-03T15:37:37;6.85;;;2.03;;
77164;SDS011;66140;50.280;18.660;2023-04-03T15:40:03;4.63;;;1.77;;
77164;SDS011;66140;50.280;18.660;2023-04-03T15:45:15;4.65;;;1.73;;
77164;SDS011;66140;50.280;18.660;2023-04-03T15:47:41;10.73;;;3.83;;
77164;SDS011;66140;50.280;18.660;2023-04-03T15:50:07;3.55;;;1.40;;
77164;SDS011;66140;50.280;18.660;2023-04-03T15:52:33;4.78;;;2.80;;
77164;SDS011;66140;50.280;18.660;2023-04-03T15:54:59;6.75;;;3.50;;
77164;SDS011;66140;50.280;18.660;2023-04-03T15:57:24;6.75;;;2.97;;
77164;SDS011;66140;50.280;18.660;2023-04-03T15:59:52;3.00;;;1.83;;
77164;SDS011;66140;50.280;18.660;2023-04-03T16:02:17;4.15;;;1.83;;
77164;SDS011;66140;50.280;18.660;2023-04-03T16:04:43;4.53;;;2.03;;
77164;SDS011;66140;50.280;18.660;2023-04-03T16:07:09;7.22;;;2.70;;
77164;SDS011;66140;50.280;18.660;2023-04-03T16:09:35;5.00;;;2.30;;
77164;SDS011;66140;50.280;18.660;2023-04-03T16:12:01;6.75;;;3.15;;
77164;SDS011;66140;50.280;18.660;2023-04-03T16:14:45;6.55;;;3.40;;
77164;SDS011;66140;50.280;18.660;2023-04-03T16:17:10;7.20;;;3.65;;
77164;SDS011;66140;50.280;18.660;2023-04-03T16:19:36;6.15;;;2.72;;
77164;SDS011;66140;50.280;18.660;2023-04-03T16:22:02;6.93;;;2.40;;
77164;SDS011;66140;50.280;18.660;2023-04-03T16:24:27;3.42;;;1.88;;
77164;SDS011;66140;50.280;18.660;2023-04-03T16:26:54;7.50;;;2.70;;
77164;SDS011;66140;50.280;18.660;2023-04-03T16:29:20;9.25;;;3.25;;
77164;SDS011;66140;50.280;18.660;2023-04-03T16:31:47;4.50;;;2.47;;
77164;SDS011;66140;50.280;18.660;2023-04-03T16:34:13;6.63;;;2.58;;
77164;SDS011;66140;50.280;18.660;2023-04-03T16:36:38;7.65;;;2.28;;
77164;SDS011;66140;50.280;18.660;2023-04-03T16:39:04;6.20;;;2.58;;
77164;SDS011;66140;50.280;18.660;2023-04-03T16:41:30;6.45;;;2.47;;
77164;SDS011;66140;50.280;18.660;2023-04-03T16:43:55;3.63;;;2.03;;
77164;SDS011;66140;50.280;18.660;2023-04-03T16:46:21;5.03;;;2.13;;
77164;SDS011;66140;50.280;18.660;2023-04-03T16:48:46;4.47;;;1.50;;
77164;SDS011;66140;50.280;18.660;2023-04-03T16:51:12;5.05;;;2.13;;
77164;SDS011;66140;50.280;18.660;2023-04-03T16:53:41;4.68;;;1.58;;
77164;SDS011;66140;50.280;18.660;2023-04-03T16:56:07;4.63;;;2.08;;
77164;SDS011;66140;50.280;18.660;2023-04-03T16:58:32;4.72;;;3.10;;
77164;SDS011;66140;50.280;18.660;2023-04-03T17:01:00;8.38;;;3.75;;
77164;SDS011;66140;50.280;18.660;2023-04-03T17:03:36;6.78;;;3.20;;
77164;SDS011;66140;50.280;18.660;2023-04-03T17:06:02;4.53;;;2.25;;
77164;SDS011;66140;50.280;18.660;2023-04-03T17:08:28;3.67;;;1.98;;
77164;SDS011;66140;50.280;18.660;2023-04-03T17:10:53;3.08;;;1.55;;
77164;SDS011;66140;50.280;18.660;2023-04-03T17:13:20;3.67;;;1.70;;
77164;SDS011;66140;50.280;18.660;2023-04-03T17:15:45;3.67;;;2.30;;
77164;SDS011;66140;50.280;18.660;2023-04-03T17:18:14;5.15;;;2.58;;
77164;SDS011;66140;50.280;18.660;2023-04-03T17:20:39;6.78;;;3.05;;
77164;SDS011;66140;50.280;18.660;2023-04-03T17:23:08;4.88;;;2.25;;
77164;SDS011;66140;50.280;18.660;2023-04-03T17:25:34;5.13;;;2.33;;
77164;SDS011;66140;50.280;18.660;2023-04-03T17:28:00;4.88;;;2.50;;
77164;SDS011;66140;50.280;18.660;2023-04-03T17:30:25;5.25;;;2.03;;
77164;SDS011;66140;50.280;18.660;2023-04-03T17:32:51;5.68;;;2.45;;
77164;SDS011;66140;50.280;18.660;2023-04-03T17:35:16;5.38;;;2.17;;
77164;SDS011;66140;50.280;18.660;2023-04-03T17:37:46;4.30;;;1.77;;
77164;SDS011;66140;50.280;18.660;2023-04-03T17:40:14;5.78;;;1.65;;
77164;SDS011;66140;50.280;18.660;2023-04-03T17:42:41;5.22;;;2.45;;
77164;SDS011;66140;50.280;18.660;2023-04-03T17:45:07;8.05;;;2.70;;
77164;SDS011;66140;50.280;18.660;2023-04-03T17:47:33;16.20;;;5.38;;
77164;SDS011;66140;50.280;18.660;2023-04-03T17:49:59;6.70;;;2.90;;
77164;SDS011;66140;50.280;18.660;2023-04-03T17:52:24;10.13;;;2.70;;
77164;SDS011;66140;50.280;18.660;2023-04-03T17:54:52;15.38;;;5.43;;
77164;SDS011;66140;50.280;18.660;2023-04-03T17:57:18;9.05;;;3.83;;
77164;SDS011;66140;50.280;18.660;2023-04-03T17:59:45;5.90;;;2.65;;
77164;SDS011;66140;50.280;18.660;2023-04-03T18:02:10;4.82;;;2.42;;
77164;SDS011;66140;50.280;18.660;2023-04-03T18:04:36;5.57;;;3.03;;
77164;SDS011;66140;50.280;18.660;2023-04-03T18:07:01;6.07;;;2.80;;
77164;SDS011;66140;50.280;18.660;2023-04-03T18:09:28;6.72;;;3.17;;
77164;SDS011;66140;50.280;18.660;2023-04-03T18:11:59;8.02;;;3.45;;
77164;SDS011;66140;50.280;18.660;2023-04-03T18:14:28;7.60;;;3.28;;
77164;SDS011;66140;50.280;18.660;2023-04-03T18:16:54;8.00;;;3.33;;
77164;SDS011;66140;50.280;18.660;2023-04-03T18:19:21;8.48;;;3.50;;
77164;SDS011;66140;50.280;18.660;2023-04-03T18:21:47;8.70;;;3.25;;
77164;SDS011;66140;50.280;18.660;2023-04-03T18:24:14;7.10;;;2.55;;
77164;SDS011;66140;50.280;18.660;2023-04-03T18:29:10;8.18;;;3.40;;
77164;SDS011;66140;50.280;18.660;2023-04-03T18:31:36;10.98;;;3.90;;
77164;SDS011;66140;50.280;18.660;2023-04-03T18:34:05;8.57;;;2.03;;
77164;SDS011;66140;50.280;18.660;2023-04-03T18:36:31;6.55;;;2.33;;
77164;SDS011;66140;50.280;18.660;2023-04-03T18:38:56;7.60;;;2.20;;
77164;SDS011;66140;50.280;18.660;2023-04-03T18:41:23;7.75;;;3.10;;
77164;SDS011;66140;50.280;18.660;2023-04-03T18:43:51;7.95;;;2.60;;
77164;SDS011;66140;50.280;18.660;2023-04-03T18:46:17;5.07;;;2.20;;
77164;SDS011;66140;50.280;18.660;2023-04-03T18:48:43;6.18;;;2.63;;
77164;SDS011;66140;50.280;18.660;2023-04-03T18:51:10;5.65;;;2.60;;
77164;SDS011;66140;50.280;18.660;2023-04-03T18:53:37;5.88;;;1.95;;
77164;SDS011;66140;50.280;18.660;2023-04-03T18:56:02;5.60;;;2.25;;
77164;SDS011;66140;50.280;18.660;2023-04-03T18:58:28;4.82;;;1.88;;
77164;SDS011;66140;50.280;18.660;2023-04-03T19:00:53;6.93;;;1.77;;
77164;SDS011;66140;50.280;18.660;2023-04-03T19:03:19;5.30;;;1.90;;
77164;SDS011;66140;50.280;18.660;2023-04-03T19:05:45;1.85;;;1.20;;
77164;SDS011;66140;50.280;18.660;2023-04-03T19:08:10;6.25;;;2.83;;
77164;SDS011;66140;50.280;18.660;2023-04-03T19:10:37;4.68;;;2.40;;
77164;SDS011;66140;50.280;18.660;2023-04-03T19:13:02;5.93;;;2.30;;
77164;SDS011;66140;50.280;18.660;2023-04-03T19:15:28;7.00;;;2.17;;
77164;SDS011;66140;50.280;18.660;2023-04-03T19:17:53;7.15;;;3.63;;
77164;SDS011;66140;50.280;18.660;2023-04-03T19:20:19;4.72;;;2.33;;
77164;SDS011;66140;50.280;18.660;2023-04-03T19:22:45;11.43;;;3.22;;
77164;SDS011;66140;50.280;18.660;2023-04-03T19:25:10;6.72;;;2.53;;
77164;SDS011;66140;50.280;18.660;2023-04-03T19:27:37;6.53;;;2.88;;
77164;SDS011;66140;50.280;18.660;2023-04-03T19:30:04;6.78;;;2.95;;
77164;SDS011;66140;50.280;18.660;2023-04-03T19:32:31;6.75;;;2.85;;
77164;SDS011;66140;50.280;18.660;2023-04-03T19:34:57;6.38;;;2.75;;
77164;SDS011;66140;50.280;18.660;2023-04-03T19:37:23;5.85;;;2.97;;
77164;SDS011;66140;50.280;18.660;2023-04-03T19:39:49;9.55;;;3.30;;
77164;SDS011;66140;50.280;18.660;2023-04-03T19:42:15;5.78;;;3.00;;
77164;SDS011;66140;50.280;18.660;2023-04-03T19:44:43;9.77;;;3.55;;
77164;SDS011;66140;50.280;18.660;2023-04-03T19:47:09;5.30;;;3.05;;
77164;SDS011;66140;50.280;18.660;2023-04-03T19:49:36;7.28;;;3.35;;
77164;SDS011;66140;50.280;18.660;2023-04-03T19:52:01;7.07;;;3.20;;
77164;SDS011;66140;50.280;18.660;2023-04-03T19:54:28;8.48;;;3.50;;
77164;SDS011;66140;50.280;18.660;2023-04-03T19:56:56;8.55;;;3.88;;
77164;SDS011;66140;50.280;18.660;2023-04-03T19:59:22;8.05;;;4.10;;
77164;SDS011;66140;50.280;18.660;2023-04-03T20:01:48;9.43;;;3.83;;
77164;SDS011;66140;50.280;18.660;2023-04-03T20:04:14;6.35;;;2.97;;
77164;SDS011;66140;50.280;18.660;2023-04-03T20:06:40;6.65;;;3.08;;
77164;SDS011;66140;50.280;18.660;2023-04-03T20:09:06;9.55;;;3.40;;
77164;SDS011;66140;50.280;18.660;2023-04-03T20:11:35;7.03;;;3.03;;
77164;SDS011;66140;50.280;18.660;2023-04-03T20:14:01;2.50;;;1.77;;
77164;SDS011;66140;50.280;18.660;2023-04-03T20:16:27;8.98;;;2.90;;
77164;SDS011;66140;50.280;18.660;2023-04-03T20:18:53;7.40;;;2.88;;
77164;SDS011;66140;50.280;18.660;2023-04-03T20:21:21;6.35;;;2.50;;
77164;SDS011;66140;50.280;18.660;2023-04-03T20:23:51;10.15;;;3.85;;
77164;SDS011;66140;50.280;18.660;2023-04-03T20:26:18;8.80;;;3.50;;
77164;SDS011;66140;50.280;18.660;2023-04-03T20:28:50;7.57;;;3.17;;
77164;SDS011;66140;50.280;18.660;2023-04-03T20:31:17;7.45;;;3.53;;
77164;SDS011;66140;50.280;18.660;2023-04-03T20:33:43;4.85;;;2.85;;
77164;SDS011;66140;50.280;18.660;2023-04-03T20:36:10;7.65;;;3.33;;
77164;SDS011;66140;50.280;18.660;2023-04-03T20:38:55;7.57;;;3.00;;
77164;SDS011;66140;50.280;18.660;2023-04-03T20:41:21;5.93;;;2.72;;
77164;SDS011;66140;50.280;18.660;2023-04-03T20:43:47;10.80;;;3.70;;
77164;SDS011;66140;50.280;18.660;2023-04-03T20:46:13;8.50;;;3.00;;
77164;SDS011;66140;50.280;18.660;2023-04-03T20:48:43;11.05;;;3.92;;
77164;SDS011;66140;50.280;18.660;2023-04-03T20:51:10;8.07;;;3.45;;
77164;SDS011;66140;50.280;18.660;2023-04-03T20:53:37;7.57;;;3.58;;
77164;SDS011;66140;50.280;18.660;2023-04-03T20:56:03;6.28;;;2.90;;
77164;SDS011;66140;50.280;18.660;2023-04-03T20:58:29;8.75;;;3.80;;
77164;SDS011;66140;50.280;18.660;2023-04-03T21:00:58;8.23;;;4.95;;
77164;SDS011;66140;50.280;18.660;2023-04-03T21:03:25;7.40;;;3.33;;
77164;SDS011;66140;50.280;18.660;2023-04-03T21:20:47;6.82;;;3.30;;
77164;SDS011;66140;50.280;18.660;2023-04-03T21:23:13;8.68;;;3.42;;
77164;SDS011;66140;50.280;18.660;2023-04-03T21:25:38;9.73;;;4.07;;
77164;SDS011;66140;50.280;18.660;2023-04-03T21:28:05;7.20;;;3.58;;
77164;SDS011;66140;50.280;18.660;2023-04-03T21:30:31;8.23;;;3.75;;
77164;SDS011;66140;50.280;18.660;2023-04-03T21:32:56;9.85;;;2.72;;
77164;SDS011;66140;50.280;18.660;2023-04-03T21:35:21;7.32;;;4.30;;
77164;SDS011;66140;50.280;18.660;2023-04-03T21:37:47;8.18;;;3.25;;
77164;SDS011;66140;50.280;18.660;2023-04-03T21:40:13;6.68;;;3.58;;
77164;SDS011;66140;50.280;18.660;2023-04-03T21:42:38;5.47;;;3.65;;
77164;SDS011;66140;50.280;18.660;2023-04-03T21:45:04;6.25;;;3.10;;
77164;SDS011;66140;50.280;18.660;2023-04-03T21:47:30;8.18;;;3.08;;
77164;SDS011;66140;50.280;18.660;2023-04-03T21:49:55;10.27;;;3.70;;
77164;SDS011;66140;50.280;18.660;2023-04-03T21:52:21;6.57;;;2.33;;
77164;SDS011;66140;50.280;18.660;2023-04-03T21:54:46;8.52;;;5.13;;
77164;SDS011;66140;50.280;18.660;2023-04-03T21:57:12;9.77;;;3.72;;
77164;SDS011;66140;50.280;18.660;2023-04-03T21:59:38;8.50;;;3.28;;
77164;SDS011;66140;50.280;18.660;2023-04-03T22:02:03;7.10;;;3.78;;
77164;SDS011;66140;50.280;18.660;2023-04-03T22:04:29;10.05;;;3.53;;